sensor_id;sensor_type;location;lat;lon;timestamp;P1;durP1;ratioP1;P2;durP2;ratioP2
1412;SDS011;701;52.526;13.408;2022-12-08T00:01:10;10.07;;;4.00;;
1412;SDS011;701;52.526;13.408;2022-12-08T00:03:38;11.75;;;4.40;;
1412;SDS011;701;52.526;13.408;2022-12-08T00:06:04;12.45;;;4.50;;
1412;SDS011;701;52.526;13.408;2022-12-08T00:08:49;10.77;;;4.70;;
1412;SDS011;701;52.526;13.408;2022-12-08T00:11:34;12.43;;;4.28;;
1412;SDS011;701;52.526;13.408;2022-12-08T00:13:59;15.18;;;4.72;;
1412;SDS011;701;52.526;13.408;2022-12-08T00:16:25;13.30;;;4.45;;
1412;SDS011;701;52.526;13.408;2022-12-08T00:18:51;13.57;;;4.53;;
1412;SDS011;701;52.526;13.408;2022-12-08T00:21:17;15.80;;;4.60;;
1412;SDS011;701;52.526;13.408;2022-12-08T00:23:43;15.70;;;4.77;;
1412;SDS011;701;52.526;13.408;2022-12-08T00:26:08;13.70;;;4.75;;
1412;SDS011;701;52.526;13.408;2022-12-08T00:28:34;11.07;;;4.53;;
1412;SDS011;701;52.526;13.408;2022-12-08T00:31:05;12.32;;;4.93;;
1412;SDS011;701;52.526;13.408;2022-12-08T00:33:33;12.30;;;5.38;;
1412;SDS011;701;52.526;13.408;2022-12-08T00:36:04;13.37;;;4.80;;
1412;SDS011;701;52.526;13.408;2022-12-08T00:38:32;14.85;;;4.78;;
1412;SDS011;701;52.526;13.408;2022-12-08T00:40:58;11.43;;;4.63;;
1412;SDS011;701;52.526;13.408;2022-12-08T00:43:24;10.87;;;4.50;;
1412;SDS011;701;52.526;13.408;2022-12-08T00:45:50;13.63;;;4.75;;
1412;SDS011;701;52.526;13.408;2022-12-08T00:48:16;11.18;;;4.78;;
1412;SDS011;701;52.526;13.408;2022-12-08T00:50:42;13.53;;;5.13;;
1412;SDS011;701;52.526;13.408;2022-12-08T00:53:08;10.18;;;4.95;;
1412;SDS011;701;52.526;13.408;2022-12-08T00:55:33;15.27;;;5.23;;
1412;SDS011;701;52.526;13.408;2022-12-08T00:57:59;16.33;;;5.40;;
1412;SDS011;701;52.526;13.408;2022-12-08T01:00:25;12.07;;;5.50;;
1412;SDS011;701;52.526;13.408;2022-12-08T01:02:51;13.70;;;4.90;;
1412;SDS011;701;52.526;13.408;2022-12-08T01:05:17;13.25;;;5.32;;
1412;SDS011;701;52.526;13.408;2022-12-08T01:07:42;12.70;;;5.47;;
1412;SDS011;701;52.526;13.408;2022-12-08T01:10:08;13.95;;;5.35;;
1412;SDS011;701;52.526;13.408;2022-12-08T01:12:34;14.67;;;5.80;;
1412;SDS011;701;52.526;13.408;2022-12-08T01:15:00;12.50;;;5.38;;
1412;SDS011;701;52.526;13.408;2022-12-08T01:17:26;12.40;;;5.47;;
1412;SDS011;701;52.526;13.408;2022-12-08T01:19:51;13.07;;;5.50;;
1412;SDS011;701;52.526;13.408;2022-12-08T01:22:17;13.25;;;5.32;;
1412;SDS011;701;52.526;13.408;2022-12-08T01:24:43;14.10;;;5.70;;
1412;SDS011;701;52.526;13.408;2022-12-08T01:27:08;13.13;;;5.53;;
1412;SDS011;701;52.526;13.408;2022-12-08T01:29:34;14.63;;;5.80;;
1412;SDS011;701;52.526;13.408;2022-12-08T01:32:00;15.55;;;5.80;;
1412;SDS011;701;52.526;13.408;2022-12-08T01:34:26;12.48;;;5.72;;
1412;SDS011;701;52.526;13.408;2022-12-08T01:36:52;15.05;;;5.63;;
1412;SDS011;701;52.526;13.408;2022-12-08T01:39:18;12.97;;;5.20;;
1412;SDS011;701;52.526;13.408;2022-12-08T01:41:44;11.90;;;5.45;;
1412;SDS011;701;52.526;13.408;2022-12-08T01:46:38;13.27;;;5.73;;
1412;SDS011;701;52.526;13.408;2022-12-08T01:49:12;13.98;;;5.38;;
1412;SDS011;701;52.526;13.408;2022-12-08T01:51:43;16.27;;;5.80;;
1412;SDS011;701;52.526;13.408;2022-12-08T01:54:14;12.18;;;5.35;;
1412;SDS011;701;52.526;13.408;2022-12-08T01:56:41;14.23;;;5.20;;
1412;SDS011;701;52.526;13.408;2022-12-08T01:59:27;13.07;;;5.83;;
1412;SDS011;701;52.526;13.408;2022-12-08T02:01:57;11.98;;;5.85;;
1412;SDS011;701;52.526;13.408;2022-12-08T02:04:23;13.27;;;5.85;;
1412;SDS011;701;52.526;13.408;2022-12-08T02:06:48;12.93;;;5.00;;
1412;SDS011;701;52.526;13.408;2022-12-08T02:09:15;12.80;;;5.25;;
1412;SDS011;701;52.526;13.408;2022-12-08T02:11:42;10.80;;;5.03;;
1412;SDS011;701;52.526;13.408;2022-12-08T02:14:08;12.13;;;5.53;;
1412;SDS011;701;52.526;13.408;2022-12-08T02:38:40;10.70;;;5.00;;
1412;SDS011;701;52.526;13.408;2022-12-08T02:43:52;11.50;;;5.13;;
1412;SDS011;701;52.526;13.408;2022-12-08T02:46:34;10.60;;;4.72;;
1412;SDS011;701;52.526;13.408;2022-12-08T02:49:03;10.13;;;4.53;;
1412;SDS011;701;52.526;13.408;2022-12-08T02:51:30;12.25;;;5.50;;
1412;SDS011;701;52.526;13.408;2022-12-08T02:53:56;12.27;;;5.28;;
1412;SDS011;701;52.526;13.408;2022-12-08T03:04:42;12.38;;;4.53;;
1412;SDS011;701;52.526;13.408;2022-12-08T03:07:23;9.77;;;4.55;;
1412;SDS011;701;52.526;13.408;2022-12-08T03:09:59;12.60;;;4.70;;
1412;SDS011;701;52.526;13.408;2022-12-08T03:12:47;14.27;;;4.65;;
1412;SDS011;701;52.526;13.408;2022-12-08T03:15:17;13.65;;;4.45;;
1412;SDS011;701;52.526;13.408;2022-12-08T03:17:45;10.95;;;3.95;;
1412;SDS011;701;52.526;13.408;2022-12-08T03:20:18;8.68;;;3.80;;
1412;SDS011;701;52.526;13.408;2022-12-08T03:22:48;10.13;;;4.10;;
1412;SDS011;701;52.526;13.408;2022-12-08T03:25:17;8.77;;;4.07;;
1412;SDS011;701;52.526;13.408;2022-12-08T03:27:46;10.40;;;3.90;;
1412;SDS011;701;52.526;13.408;2022-12-08T03:30:12;9.20;;;3.58;;
1412;SDS011;701;52.526;13.408;2022-12-08T03:32:51;8.97;;;4.20;;
1412;SDS011;701;52.526;13.408;2022-12-08T03:35:38;10.07;;;3.88;;
1412;SDS011;701;52.526;13.408;2022-12-08T03:38:06;9.95;;;3.72;;
1412;SDS011;701;52.526;13.408;2022-12-08T03:40:37;7.75;;;3.90;;
1412;SDS011;701;52.526;13.408;2022-12-08T03:43:03;9.00;;;3.67;;
1412;SDS011;701;52.526;13.408;2022-12-08T03:45:29;8.73;;;3.80;;
1412;SDS011;701;52.526;13.408;2022-12-08T03:47:56;7.82;;;3.58;;
1412;SDS011;701;52.526;13.408;2022-12-08T03:50:22;8.98;;;3.70;;
1412;SDS011;701;52.526;13.408;2022-12-08T03:52:48;7.50;;;3.30;;
1412;SDS011;701;52.526;13.408;2022-12-08T03:55:13;7.17;;;3.00;;
1412;SDS011;701;52.526;13.408;2022-12-08T03:57:39;8.13;;;3.75;;
1412;SDS011;701;52.526;13.408;2022-12-08T04:00:05;8.97;;;4.00;;
1412;SDS011;701;52.526;13.408;2022-12-08T04:02:32;8.98;;;4.00;;
1412;SDS011;701;52.526;13.408;2022-12-08T04:04:58;8.93;;;3.97;;
1412;SDS011;701;52.526;13.408;2022-12-08T04:07:24;10.53;;;3.83;;
1412;SDS011;701;52.526;13.408;2022-12-08T04:09:50;10.45;;;4.60;;
1412;SDS011;701;52.526;13.408;2022-12-08T04:12:15;10.73;;;4.70;;
1412;SDS011;701;52.526;13.408;2022-12-08T04:14:41;10.87;;;4.43;;
1412;SDS011;701;52.526;13.408;2022-12-08T04:17:07;10.18;;;5.32;;
1412;SDS011;701;52.526;13.408;2022-12-08T04:19:33;12.82;;;5.38;;
1412;SDS011;701;52.526;13.408;2022-12-08T04:21:58;10.43;;;5.60;;
1412;SDS011;701;52.526;13.408;2022-12-08T04:24:24;11.50;;;5.57;;
1412;SDS011;701;52.526;13.408;2022-12-08T04:26:50;11.73;;;5.78;;
1412;SDS011;701;52.526;13.408;2022-12-08T04:29:15;12.60;;;5.83;;
1412;SDS011;701;52.526;13.408;2022-12-08T04:31:41;12.40;;;5.93;;
1412;SDS011;701;52.526;13.408;2022-12-08T04:34:07;12.27;;;5.60;;
1412;SDS011;701;52.526;13.408;2022-12-08T04:36:33;11.25;;;5.50;;
1412;SDS011;701;52.526;13.408;2022-12-08T04:38:59;11.07;;;5.03;;
1412;SDS011;701;52.526;13.408;2022-12-08T04:41:25;13.00;;;5.73;;
1412;SDS011;701;52.526;13.408;2022-12-08T04:43:51;12.65;;;5.78;;
1412;SDS011;701;52.526;13.408;2022-12-08T04:46:16;12.60;;;6.20;;
1412;SDS011;701;52.526;13.408;2022-12-08T04:48:42;12.57;;;5.72;;
1412;SDS011;701;52.526;13.408;2022-12-08T04:51:14;13.53;;;6.10;;
1412;SDS011;701;52.526;13.408;2022-12-08T04:53:42;12.88;;;6.32;;
1412;SDS011;701;52.526;13.408;2022-12-08T04:56:12;13.23;;;6.43;;
1412;SDS011;701;52.526;13.408;2022-12-08T04:58:38;13.63;;;6.30;;
1412;SDS011;701;52.526;13.408;2022-12-08T05:01:04;14.77;;;6.90;;
1412;SDS011;701;52.526;13.408;2022-12-08T05:03:30;14.27;;;6.70;;
1412;SDS011;701;52.526;13.408;2022-12-08T05:05:58;12.00;;;6.53;;
1412;SDS011;701;52.526;13.408;2022-12-08T05:08:24;14.18;;;6.15;;
1412;SDS011;701;52.526;13.408;2022-12-08T05:10:50;12.88;;;6.25;;
1412;SDS011;701;52.526;13.408;2022-12-08T05:13:15;12.80;;;6.37;;
1412;SDS011;701;52.526;13.408;2022-12-08T05:15:41;15.48;;;6.85;;
1412;SDS011;701;52.526;13.408;2022-12-08T05:18:07;13.97;;;6.50;;
1412;SDS011;701;52.526;13.408;2022-12-08T05:20:33;13.13;;;6.40;;
1412;SDS011;701;52.526;13.408;2022-12-08T05:22:58;15.77;;;6.97;;
1412;SDS011;701;52.526;13.408;2022-12-08T05:25:24;14.98;;;6.75;;
1412;SDS011;701;52.526;13.408;2022-12-08T05:27:50;14.40;;;6.60;;
1412;SDS011;701;52.526;13.408;2022-12-08T05:30:16;15.70;;;7.05;;
1412;SDS011;701;52.526;13.408;2022-12-08T05:32:41;16.00;;;7.03;;
1412;SDS011;701;52.526;13.408;2022-12-08T05:35:07;13.57;;;6.43;;
1412;SDS011;701;52.526;13.408;2022-12-08T05:37:33;16.55;;;6.95;;
1412;SDS011;701;52.526;13.408;2022-12-08T05:39:59;14.60;;;7.00;;
1412;SDS011;701;52.526;13.408;2022-12-08T05:42:25;14.90;;;7.38;;
1412;SDS011;701;52.526;13.408;2022-12-08T05:44:51;15.18;;;7.32;;
1412;SDS011;701;52.526;13.408;2022-12-08T05:47:16;17.08;;;8.43;;
1412;SDS011;701;52.526;13.408;2022-12-08T05:49:42;15.00;;;7.60;;
1412;SDS011;701;52.526;13.408;2022-12-08T05:52:09;16.25;;;7.57;;
1412;SDS011;701;52.526;13.408;2022-12-08T05:54:34;16.48;;;7.35;;
1412;SDS011;701;52.526;13.408;2022-12-08T05:57:00;18.83;;;7.93;;
1412;SDS011;701;52.526;13.408;2022-12-08T05:59:26;18.90;;;7.60;;
1412;SDS011;701;52.526;13.408;2022-12-08T06:01:52;25.27;;;8.63;;
1412;SDS011;701;52.526;13.408;2022-12-08T06:04:17;15.82;;;7.60;;
1412;SDS011;701;52.526;13.408;2022-12-08T06:06:43;15.77;;;7.40;;
1412;SDS011;701;52.526;13.408;2022-12-08T06:09:09;17.55;;;8.45;;
1412;SDS011;701;52.526;13.408;2022-12-08T06:11:36;17.57;;;7.43;;
1412;SDS011;701;52.526;13.408;2022-12-08T06:14:02;20.02;;;8.52;;
1412;SDS011;701;52.526;13.408;2022-12-08T06:16:28;16.27;;;7.80;;
1412;SDS011;701;52.526;13.408;2022-12-08T06:18:55;17.50;;;7.47;;
1412;SDS011;701;52.526;13.408;2022-12-08T06:21:21;17.45;;;7.85;;
1412;SDS011;701;52.526;13.408;2022-12-08T06:23:47;20.13;;;8.03;;
1412;SDS011;701;52.526;13.408;2022-12-08T06:26:14;18.92;;;8.23;;
1412;SDS011;701;52.526;13.408;2022-12-08T06:28:41;17.92;;;8.00;;
1412;SDS011;701;52.526;13.408;2022-12-08T06:31:08;17.48;;;8.38;;
1412;SDS011;701;52.526;13.408;2022-12-08T06:33:35;15.63;;;7.67;;
1412;SDS011;701;52.526;13.408;2022-12-08T06:36:02;19.38;;;8.13;;
1412;SDS011;701;52.526;13.408;2022-12-08T06:38:29;22.30;;;8.25;;
1412;SDS011;701;52.526;13.408;2022-12-08T06:40:55;19.30;;;8.05;;
1412;SDS011;701;52.526;13.408;2022-12-08T06:43:22;25.17;;;8.68;;
1412;SDS011;701;52.526;13.408;2022-12-08T06:45:48;17.47;;;8.10;;
1412;SDS011;701;52.526;13.408;2022-12-08T06:48:14;19.35;;;8.63;;
1412;SDS011;701;52.526;13.408;2022-12-08T06:50:40;18.38;;;8.02;;
1412;SDS011;701;52.526;13.408;2022-12-08T06:53:06;17.83;;;7.30;;
1412;SDS011;701;52.526;13.408;2022-12-08T06:55:32;19.98;;;8.40;;
1412;SDS011;701;52.526;13.408;2022-12-08T06:57:57;18.17;;;7.90;;
1412;SDS011;701;52.526;13.408;2022-12-08T07:00:23;16.87;;;7.70;;
1412;SDS011;701;52.526;13.408;2022-12-08T07:02:49;17.77;;;8.00;;
1412;SDS011;701;52.526;13.408;2022-12-08T07:05:15;22.50;;;8.60;;
1412;SDS011;701;52.526;13.408;2022-12-08T07:07:41;21.40;;;8.13;;
1412;SDS011;701;52.526;13.408;2022-12-08T07:10:06;23.03;;;7.93;;
1412;SDS011;701;52.526;13.408;2022-12-08T07:12:32;26.50;;;8.50;;
1412;SDS011;701;52.526;13.408;2022-12-08T07:14:58;24.83;;;8.63;;
1412;SDS011;701;52.526;13.408;2022-12-08T07:17:24;21.43;;;8.00;;
1412;SDS011;701;52.526;13.408;2022-12-08T07:19:49;22.40;;;8.55;;
1412;SDS011;701;52.526;13.408;2022-12-08T07:22:15;19.50;;;8.10;;
1412;SDS011;701;52.526;13.408;2022-12-08T07:24:41;17.90;;;7.80;;
1412;SDS011;701;52.526;13.408;2022-12-08T07:27:07;22.30;;;7.70;;
1412;SDS011;701;52.526;13.408;2022-12-08T07:29:33;25.52;;;8.23;;
1412;SDS011;701;52.526;13.408;2022-12-08T07:31:59;19.97;;;7.83;;
1412;SDS011;701;52.526;13.408;2022-12-08T07:34:25;18.13;;;7.82;;
1412;SDS011;701;52.526;13.408;2022-12-08T07:36:50;21.13;;;8.13;;
1412;SDS011;701;52.526;13.408;2022-12-08T07:39:16;15.33;;;7.13;;
1412;SDS011;701;52.526;13.408;2022-12-08T07:41:42;15.70;;;7.25;;
1412;SDS011;701;52.526;13.408;2022-12-08T07:44:07;16.07;;;7.43;;
1412;SDS011;701;52.526;13.408;2022-12-08T07:46:34;19.85;;;8.10;;
1412;SDS011;701;52.526;13.408;2022-12-08T07:49:00;18.33;;;8.05;;
1412;SDS011;701;52.526;13.408;2022-12-08T07:51:26;17.73;;;8.03;;
1412;SDS011;701;52.526;13.408;2022-12-08T07:53:52;16.88;;;7.72;;
1412;SDS011;701;52.526;13.408;2022-12-08T07:56:17;17.90;;;7.70;;
1412;SDS011;701;52.526;13.408;2022-12-08T07:58:43;20.40;;;8.85;;
1412;SDS011;701;52.526;13.408;2022-12-08T08:01:18;28.20;;;9.30;;
1412;SDS011;701;52.526;13.408;2022-12-08T08:03:44;17.90;;;7.60;;
1412;SDS011;701;52.526;13.408;2022-12-08T08:06:09;15.98;;;7.43;;
1412;SDS011;701;52.526;13.408;2022-12-08T08:08:35;16.80;;;8.20;;
1412;SDS011;701;52.526;13.408;2022-12-08T08:11:04;17.13;;;7.68;;
1412;SDS011;701;52.526;13.408;2022-12-08T08:13:30;14.13;;;7.30;;
1412;SDS011;701;52.526;13.408;2022-12-08T08:16:03;21.42;;;8.10;;
1412;SDS011;701;52.526;13.408;2022-12-08T08:18:31;17.73;;;8.73;;
1412;SDS011;701;52.526;13.408;2022-12-08T08:20:57;22.52;;;7.80;;
1412;SDS011;701;52.526;13.408;2022-12-08T08:23:23;17.87;;;7.23;;
1412;SDS011;701;52.526;13.408;2022-12-08T08:25:49;16.00;;;7.15;;
1412;SDS011;701;52.526;13.408;2022-12-08T08:28:15;16.03;;;7.33;;
1412;SDS011;701;52.526;13.408;2022-12-08T08:30:40;19.90;;;7.80;;
1412;SDS011;701;52.526;13.408;2022-12-08T08:33:06;16.57;;;7.27;;
1412;SDS011;701;52.526;13.408;2022-12-08T08:35:32;16.13;;;7.35;;
1412;SDS011;701;52.526;13.408;2022-12-08T08:37:59;18.43;;;7.33;;
1412;SDS011;701;52.526;13.408;2022-12-08T08:40:25;18.60;;;7.03;;
1412;SDS011;701;52.526;13.408;2022-12-08T08:42:50;18.25;;;7.60;;
1412;SDS011;701;52.526;13.408;2022-12-08T08:45:16;18.23;;;8.67;;
1412;SDS011;701;52.526;13.408;2022-12-08T08:47:42;18.38;;;8.00;;
1412;SDS011;701;52.526;13.408;2022-12-08T08:50:08;17.13;;;7.70;;
1412;SDS011;701;52.526;13.408;2022-12-08T08:52:33;15.57;;;7.47;;
1412;SDS011;701;52.526;13.408;2022-12-08T08:54:59;14.98;;;6.90;;
1412;SDS011;701;52.526;13.408;2022-12-08T08:57:25;21.03;;;10.13;;
1412;SDS011;701;52.526;13.408;2022-12-08T08:59:51;17.60;;;7.35;;
1412;SDS011;701;52.526;13.408;2022-12-08T09:02:17;16.50;;;7.10;;
1412;SDS011;701;52.526;13.408;2022-12-08T09:04:43;16.88;;;8.00;;
1412;SDS011;701;52.526;13.408;2022-12-08T09:07:10;22.27;;;7.80;;
1412;SDS011;701;52.526;13.408;2022-12-08T09:09:36;17.25;;;8.10;;
1412;SDS011;701;52.526;13.408;2022-12-08T09:12:02;19.80;;;7.57;;
1412;SDS011;701;52.526;13.408;2022-12-08T09:14:29;16.58;;;7.35;;
1412;SDS011;701;52.526;13.408;2022-12-08T09:16:54;14.70;;;7.25;;
1412;SDS011;701;52.526;13.408;2022-12-08T09:19:20;16.07;;;7.57;;
1412;SDS011;701;52.526;13.408;2022-12-08T09:21:46;14.68;;;7.03;;
1412;SDS011;701;52.526;13.408;2022-12-08T09:24:12;20.27;;;7.57;;
1412;SDS011;701;52.526;13.408;2022-12-08T09:26:41;18.60;;;7.65;;
1412;SDS011;701;52.526;13.408;2022-12-08T09:29:08;16.98;;;7.00;;
1412;SDS011;701;52.526;13.408;2022-12-08T09:31:35;18.38;;;7.85;;
1412;SDS011;701;52.526;13.408;2022-12-08T09:34:01;18.75;;;7.90;;
1412;SDS011;701;52.526;13.408;2022-12-08T09:36:28;16.53;;;7.20;;
1412;SDS011;701;52.526;13.408;2022-12-08T09:38:54;17.98;;;7.47;;
1412;SDS011;701;52.526;13.408;2022-12-08T09:47:14;15.57;;;7.82;;
1412;SDS011;701;52.526;13.408;2022-12-08T09:49:50;18.50;;;7.50;;
1412;SDS011;701;52.526;13.408;2022-12-08T09:52:31;14.88;;;7.65;;
1412;SDS011;701;52.526;13.408;2022-12-08T09:55:03;14.77;;;7.63;;
1412;SDS011;701;52.526;13.408;2022-12-08T09:57:53;20.98;;;8.20;;
1412;SDS011;701;52.526;13.408;2022-12-08T10:00:25;17.58;;;7.43;;
1412;SDS011;701;52.526;13.408;2022-12-08T10:02:51;19.77;;;9.60;;
1412;SDS011;701;52.526;13.408;2022-12-08T10:05:17;15.95;;;7.40;;
1412;SDS011;701;52.526;13.408;2022-12-08T10:13:18;54.10;;;21.48;;
1412;SDS011;701;52.526;13.408;2022-12-08T10:15:56;23.85;;;10.20;;
1412;SDS011;701;52.526;13.408;2022-12-08T10:18:29;19.33;;;9.23;;
1412;SDS011;701;52.526;13.408;2022-12-08T10:23:50;16.50;;;8.15;;
1412;SDS011;701;52.526;13.408;2022-12-08T10:26:22;16.95;;;8.40;;
1412;SDS011;701;52.526;13.408;2022-12-08T10:28:48;16.85;;;7.75;;
1412;SDS011;701;52.526;13.408;2022-12-08T10:31:21;17.58;;;7.50;;
1412;SDS011;701;52.526;13.408;2022-12-08T10:33:51;18.37;;;8.27;;
1412;SDS011;701;52.526;13.408;2022-12-08T10:36:24;18.23;;;7.50;;
1412;SDS011;701;52.526;13.408;2022-12-08T10:47:35;16.60;;;7.57;;
1412;SDS011;701;52.526;13.408;2022-12-08T10:52:57;19.27;;;7.97;;
1412;SDS011;701;52.526;13.408;2022-12-08T10:55:25;17.23;;;7.65;;
1412;SDS011;701;52.526;13.408;2022-12-08T10:57:52;14.95;;;7.03;;
1412;SDS011;701;52.526;13.408;2022-12-08T11:00:22;15.13;;;6.87;;
1412;SDS011;701;52.526;13.408;2022-12-08T11:02:54;15.25;;;7.32;;
1412;SDS011;701;52.526;13.408;2022-12-08T11:05:26;16.67;;;7.07;;
1412;SDS011;701;52.526;13.408;2022-12-08T11:07:56;15.40;;;6.97;;
1412;SDS011;701;52.526;13.408;2022-12-08T11:10:29;13.57;;;6.60;;
1412;SDS011;701;52.526;13.408;2022-12-08T11:13:02;14.40;;;7.13;;
1412;SDS011;701;52.526;13.408;2022-12-08T11:15:34;16.35;;;6.28;;
1412;SDS011;701;52.526;13.408;2022-12-08T11:18:07;15.85;;;6.70;;
1412;SDS011;701;52.526;13.408;2022-12-08T11:20:44;18.15;;;6.65;;
1412;SDS011;701;52.526;13.408;2022-12-08T11:23:20;13.63;;;6.63;;
1412;SDS011;701;52.526;13.408;2022-12-08T11:25:48;16.02;;;7.28;;
1412;SDS011;701;52.526;13.408;2022-12-08T11:28:17;13.35;;;6.05;;
1412;SDS011;701;52.526;13.408;2022-12-08T11:30:48;17.88;;;6.25;;
1412;SDS011;701;52.526;13.408;2022-12-08T11:33:25;15.80;;;6.77;;
1412;SDS011;701;52.526;13.408;2022-12-08T11:36:02;13.73;;;6.25;;
1412;SDS011;701;52.526;13.408;2022-12-08T11:38:31;14.05;;;5.78;;
1412;SDS011;701;52.526;13.408;2022-12-08T11:41:03;14.75;;;6.40;;
1412;SDS011;701;52.526;13.408;2022-12-08T11:46:08;13.20;;;6.30;;
1412;SDS011;701;52.526;13.408;2022-12-08T11:51:29;15.05;;;6.82;;
1412;SDS011;701;52.526;13.408;2022-12-08T11:54:09;19.60;;;7.03;;
1412;SDS011;701;52.526;13.408;2022-12-08T11:56:46;19.02;;;8.10;;
1412;SDS011;701;52.526;13.408;2022-12-08T11:59:17;17.65;;;7.28;;
1412;SDS011;701;52.526;13.408;2022-12-08T12:01:53;16.02;;;7.18;;
1412;SDS011;701;52.526;13.408;2022-12-08T12:04:21;14.88;;;7.03;;
1412;SDS011;701;52.526;13.408;2022-12-08T12:12:51;15.82;;;7.80;;
1412;SDS011;701;52.526;13.408;2022-12-08T12:18:46;15.20;;;6.68;;
1412;SDS011;701;52.526;13.408;2022-12-08T12:24:05;15.63;;;7.18;;
1412;SDS011;701;52.526;13.408;2022-12-08T12:29:33;13.13;;;6.60;;
1412;SDS011;701;52.526;13.408;2022-12-08T12:32:02;15.80;;;6.90;;
1412;SDS011;701;52.526;13.408;2022-12-08T12:34:34;16.27;;;7.53;;
1412;SDS011;701;52.526;13.408;2022-12-08T12:37:19;13.50;;;6.75;;
1412;SDS011;701;52.526;13.408;2022-12-08T12:40:02;14.35;;;5.93;;
1412;SDS011;701;52.526;13.408;2022-12-08T12:42:37;15.23;;;6.45;;
1412;SDS011;701;52.526;13.408;2022-12-08T12:50:53;12.07;;;5.97;;
1412;SDS011;701;52.526;13.408;2022-12-08T12:55:55;13.15;;;5.90;;
1412;SDS011;701;52.526;13.408;2022-12-08T13:03:51;13.30;;;6.53;;
1412;SDS011;701;52.526;13.408;2022-12-08T13:07:02;13.63;;;6.75;;
1412;SDS011;701;52.526;13.408;2022-12-08T13:09:22;13.88;;;6.55;;
1412;SDS011;701;52.526;13.408;2022-12-08T13:11:49;13.20;;;6.65;;
1412;SDS011;701;52.526;13.408;2022-12-08T13:14:51;14.23;;;6.50;;
1412;SDS011;701;52.526;13.408;2022-12-08T13:17:16;12.48;;;5.50;;
1412;SDS011;701;52.526;13.408;2022-12-08T13:19:50;12.27;;;5.70;;
1412;SDS011;701;52.526;13.408;2022-12-08T13:28:18;11.33;;;4.67;;
1412;SDS011;701;52.526;13.408;2022-12-08T13:30:49;9.80;;;4.57;;
1412;SDS011;701;52.526;13.408;2022-12-08T13:33:25;10.65;;;5.00;;
1412;SDS011;701;52.526;13.408;2022-12-08T13:36:13;11.80;;;4.78;;
1412;SDS011;701;52.526;13.408;2022-12-08T13:38:55;15.18;;;6.53;;
1412;SDS011;701;52.526;13.408;2022-12-08T13:41:25;12.37;;;5.63;;
1412;SDS011;701;52.526;13.408;2022-12-08T13:44:00;12.13;;;5.80;;
1412;SDS011;701;52.526;13.408;2022-12-08T13:46:37;13.00;;;6.18;;
1412;SDS011;701;52.526;13.408;2022-12-08T13:49:07;13.32;;;5.82;;
1412;SDS011;701;52.526;13.408;2022-12-08T13:51:39;11.13;;;6.05;;
1412;SDS011;701;52.526;13.408;2022-12-08T13:56:50;10.73;;;5.35;;
1412;SDS011;701;52.526;13.408;2022-12-08T13:59:30;13.77;;;6.60;;
1412;SDS011;701;52.526;13.408;2022-12-08T14:02:04;13.85;;;5.45;;
1412;SDS011;701;52.526;13.408;2022-12-08T14:04:56;12.05;;;6.07;;
1412;SDS011;701;52.526;13.408;2022-12-08T14:07:22;11.20;;;5.93;;
1412;SDS011;701;52.526;13.408;2022-12-08T14:09:48;12.13;;;5.80;;
1412;SDS011;701;52.526;13.408;2022-12-08T14:12:19;12.55;;;5.97;;
1412;SDS011;701;52.526;13.408;2022-12-08T14:14:51;14.50;;;6.50;;
1412;SDS011;701;52.526;13.408;2022-12-08T14:17:21;13.20;;;6.00;;
1412;SDS011;701;52.526;13.408;2022-12-08T14:20:30;11.33;;;5.57;;
1412;SDS011;701;52.526;13.408;2022-12-08T14:22:43;11.00;;;5.53;;
1412;SDS011;701;52.526;13.408;2022-12-08T14:25:12;11.73;;;5.68;;
1412;SDS011;701;52.526;13.408;2022-12-08T14:27:40;11.50;;;5.78;;
1412;SDS011;701;52.526;13.408;2022-12-08T14:32:47;15.13;;;6.53;;
1412;SDS011;701;52.526;13.408;2022-12-08T14:35:24;13.35;;;5.13;;
1412;SDS011;701;52.526;13.408;2022-12-08T14:37:55;10.27;;;4.90;;
1412;SDS011;701;52.526;13.408;2022-12-08T14:40:33;11.13;;;5.60;;
1412;SDS011;701;52.526;13.408;2022-12-08T14:48:20;10.25;;;5.25;;
1412;SDS011;701;52.526;13.408;2022-12-08T14:53:28;11.88;;;4.53;;
1412;SDS011;701;52.526;13.408;2022-12-08T14:59:19;9.77;;;4.77;;
1412;SDS011;701;52.526;13.408;2022-12-08T15:04:56;12.05;;;5.07;;
1412;SDS011;701;52.526;13.408;2022-12-08T15:07:44;9.82;;;4.72;;
1412;SDS011;701;52.526;13.408;2022-12-08T15:15:54;10.43;;;5.35;;
1412;SDS011;701;52.526;13.408;2022-12-08T15:18:21;11.68;;;5.38;;
1412;SDS011;701;52.526;13.408;2022-12-08T15:21:04;13.25;;;5.25;;
1412;SDS011;701;52.526;13.408;2022-12-08T15:23:38;12.70;;;5.32;;
1412;SDS011;701;52.526;13.408;2022-12-08T15:26:09;12.90;;;5.40;;
1412;SDS011;701;52.526;13.408;2022-12-08T15:28:47;13.38;;;5.57;;
1412;SDS011;701;52.526;13.408;2022-12-08T15:31:13;15.80;;;5.75;;
1412;SDS011;701;52.526;13.408;2022-12-08T15:33:39;10.27;;;5.40;;
1412;SDS011;701;52.526;13.408;2022-12-08T15:36:05;11.30;;;5.57;;
1412;SDS011;701;52.526;13.408;2022-12-08T15:38:31;12.05;;;5.43;;
1412;SDS011;701;52.526;13.408;2022-12-08T15:40:57;12.75;;;5.72;;
1412;SDS011;701;52.526;13.408;2022-12-08T15:43:22;11.73;;;5.35;;
1412;SDS011;701;52.526;13.408;2022-12-08T15:45:48;10.90;;;5.15;;
1412;SDS011;701;52.526;13.408;2022-12-08T15:48:20;13.90;;;5.65;;
1412;SDS011;701;52.526;13.408;2022-12-08T15:50:47;14.40;;;5.80;;
1412;SDS011;701;52.526;13.408;2022-12-08T15:53:13;11.82;;;5.70;;
1412;SDS011;701;52.526;13.408;2022-12-08T15:55:40;12.43;;;6.07;;
1412;SDS011;701;52.526;13.408;2022-12-08T15:58:09;10.93;;;5.82;;
1412;SDS011;701;52.526;13.408;2022-12-08T16:00:46;11.60;;;6.05;;
1412;SDS011;701;52.526;13.408;2022-12-08T16:03:17;12.27;;;6.17;;
1412;SDS011;701;52.526;13.408;2022-12-08T16:05:45;13.63;;;6.30;;
1412;SDS011;701;52.526;13.408;2022-12-08T16:08:13;14.75;;;6.95;;
1412;SDS011;701;52.526;13.408;2022-12-08T16:10:40;13.57;;;6.37;;
1412;SDS011;701;52.526;13.408;2022-12-08T16:13:16;19.48;;;10.52;;
1412;SDS011;701;52.526;13.408;2022-12-08T16:16:03;17.13;;;8.07;;
1412;SDS011;701;52.526;13.408;2022-12-08T16:18:33;11.80;;;6.18;;
1412;SDS011;701;52.526;13.408;2022-12-08T16:21:00;14.48;;;6.35;;
1412;SDS011;701;52.526;13.408;2022-12-08T16:23:27;12.70;;;5.70;;
1412;SDS011;701;52.526;13.408;2022-12-08T16:25:53;12.40;;;5.80;;
1412;SDS011;701;52.526;13.408;2022-12-08T16:28:19;14.77;;;6.22;;
1412;SDS011;701;52.526;13.408;2022-12-08T16:30:45;13.20;;;6.50;;
1412;SDS011;701;52.526;13.408;2022-12-08T16:33:10;14.03;;;5.93;;
1412;SDS011;701;52.526;13.408;2022-12-08T16:35:36;16.80;;;7.57;;
1412;SDS011;701;52.526;13.408;2022-12-08T16:38:03;15.32;;;7.82;;
1412;SDS011;701;52.526;13.408;2022-12-08T16:40:28;13.67;;;6.13;;
1412;SDS011;701;52.526;13.408;2022-12-08T16:42:54;12.25;;;6.03;;
1412;SDS011;701;52.526;13.408;2022-12-08T16:45:22;11.27;;;5.72;;
1412;SDS011;701;52.526;13.408;2022-12-08T16:47:56;13.15;;;5.88;;
1412;SDS011;701;52.526;13.408;2022-12-08T16:50:24;10.83;;;5.97;;
1412;SDS011;701;52.526;13.408;2022-12-08T16:52:59;14.65;;;6.63;;
1412;SDS011;701;52.526;13.408;2022-12-08T16:55:30;11.73;;;5.55;;
1412;SDS011;701;52.526;13.408;2022-12-08T16:57:56;14.00;;;6.53;;
1412;SDS011;701;52.526;13.408;2022-12-08T17:00:23;12.63;;;6.20;;
1412;SDS011;701;52.526;13.408;2022-12-08T17:02:50;10.90;;;6.07;;
1412;SDS011;701;52.526;13.408;2022-12-08T17:05:17;12.13;;;6.00;;
1412;SDS011;701;52.526;13.408;2022-12-08T17:07:44;13.48;;;6.68;;
1412;SDS011;701;52.526;13.408;2022-12-08T17:10:11;16.23;;;6.32;;
1412;SDS011;701;52.526;13.408;2022-12-08T17:12:40;12.27;;;5.87;;
1412;SDS011;701;52.526;13.408;2022-12-08T17:15:07;13.95;;;6.70;;
1412;SDS011;701;52.526;13.408;2022-12-08T17:17:36;14.80;;;6.32;;
1412;SDS011;701;52.526;13.408;2022-12-08T17:20:05;13.07;;;6.10;;